Decoded Metar for RKJK (KUNSAN in KOREA) (IATA:KUB) | Meteo·Mobile Aviation Weather
aviador You're here:

RKJK Decoded Metar

KUNSAN in KOREA
Report Time2019-02-16 06:56:00
UTC Time2019-02-16 07:29:24
Flight Rules vfr VFR
Wind320° at 13 kt
W.Decomp.*RWY 36: 10.9 kt HW 7.1 kt LCW
W.Rank320° ranks 3
Current wind is above 320° avg. (9.4)
Visibility9999 m
Phenomena:N/A
Clouds:N/A
Expected CloudBase > 3,600 ft AGL from Temp-Dew spread
CeilingNone
Temp02°C (ISA -13)
Dew Point-7°C (52% RH)
AAT-5.5°C
QNH1025 hPa
Density Alt-1,900 ft
Elevation30 ft
Report Wrong Elevation
Raw Report
RKJK 160656Z 32013KT 8SM CLR 02/M07 A3026 RMK AO2A SLPNO ALSTG
ESTMD T00171069 PWINO $=

Extra information for RKJK:More info

Metar Taf Metar & Taf Last 4 Metars F.Rules Stats Wind Profile Meteogram Temp Stats Airport Information Weather charts Add Link Nearby VenuesMetar ALERT Operation Metar Decoded Social comments